Wood Lake, North Dakota
Current Conditions -  °F | °C
As of 9:55 AM on Friday 28 Nov 2014 (Local Time) from KDVL Reporting Station
Overcast Overcast  
Wind Chill: -5°   Ceiling: 3000
Heat Index: 10°   Visibility: 10mi
Dew Point:   Wind: 13mph
Humidity: 62%   Direction: 120°ESE
Pressure: 29.84"   Gusts: NA
Location:  47.9248°N, 98.8159°W
Report Text: KDVL 281555Z AUTO 12011KT 10SM OVC030 M12/M18 A2984 RMK AO1
Loading
Personal Weather Stations






























Interactive Weather Map New forecast layout! Learn more

10-Day Weather Forecast

Advertisements
Track Severe Weather on mobile